sensor_id;sensor_type;location;lat;lon;timestamp;P1;durP1;ratioP1;P2;durP2;ratioP2
34984;SDS011;21190;58.750;17.004;2023-07-20T00:02:04;4.40;;;0.95;;
34984;SDS011;21190;58.750;17.004;2023-07-20T00:04:32;2.72;;;1.00;;
34984;SDS011;21190;58.750;17.004;2023-07-20T00:06:59;4.10;;;0.80;;
34984;SDS011;21190;58.750;17.004;2023-07-20T00:09:29;2.05;;;0.98;;
34984;SDS011;21190;58.750;17.004;2023-07-20T00:11:56;3.53;;;1.08;;
34984;SDS011;21190;58.750;17.004;2023-07-20T00:14:23;1.60;;;0.75;;
34984;SDS011;21190;58.750;17.004;2023-07-20T00:16:50;4.32;;;0.95;;
34984;SDS011;21190;58.750;17.004;2023-07-20T00:19:25;3.05;;;0.80;;
34984;SDS011;21190;58.750;17.004;2023-07-20T00:21:54;2.75;;;0.75;;
34984;SDS011;21190;58.750;17.004;2023-07-20T00:24:21;4.05;;;0.93;;
34984;SDS011;21190;58.750;17.004;2023-07-20T00:26:48;3.80;;;0.82;;
34984;SDS011;21190;58.750;17.004;2023-07-20T00:29:15;2.80;;;0.90;;
34984;SDS011;21190;58.750;17.004;2023-07-20T00:31:42;1.70;;;1.10;;
34984;SDS011;21190;58.750;17.004;2023-07-20T00:34:10;3.75;;;0.82;;
34984;SDS011;21190;58.750;17.004;2023-07-20T00:36:37;6.70;;;1.75;;
34984;SDS011;21190;58.750;17.004;2023-07-20T00:39:04;2.50;;;0.90;;
34984;SDS011;21190;58.750;17.004;2023-07-20T00:41:31;1.92;;;0.95;;
34984;SDS011;21190;58.750;17.004;2023-07-20T00:43:59;8.32;;;1.42;;
34984;SDS011;21190;58.750;17.004;2023-07-20T00:46:26;5.13;;;1.08;;
34984;SDS011;21190;58.750;17.004;2023-07-20T00:48:53;4.75;;;1.25;;
34984;SDS011;21190;58.750;17.004;2023-07-20T00:51:21;1.55;;;0.85;;
34984;SDS011;21190;58.750;17.004;2023-07-20T00:53:49;2.83;;;1.17;;
34984;SDS011;21190;58.750;17.004;2023-07-20T00:56:16;9.60;;;0.98;;
34984;SDS011;21190;58.750;17.004;2023-07-20T00:58:43;9.23;;;1.05;;
34984;SDS011;21190;58.750;17.004;2023-07-20T01:01:11;3.33;;;1.08;;
34984;SDS011;21190;58.750;17.004;2023-07-20T01:03:38;5.60;;;1.15;;
34984;SDS011;21190;58.750;17.004;2023-07-20T01:08:40;2.75;;;0.90;;
34984;SDS011;21190;58.750;17.004;2023-07-20T01:14:37;4.78;;;1.42;;
34984;SDS011;21190;58.750;17.004;2023-07-20T01:17:05;5.05;;;1.00;;
34984;SDS011;21190;58.750;17.004;2023-07-20T01:19:32;2.10;;;1.25;;
34984;SDS011;21190;58.750;17.004;2023-07-20T01:33:00;2.55;;;1.30;;
34984;SDS011;21190;58.750;17.004;2023-07-20T01:35:28;5.40;;;0.70;;
34984;SDS011;21190;58.750;17.004;2023-07-20T01:37:56;4.32;;;0.88;;
34984;SDS011;21190;58.750;17.004;2023-07-20T01:40:25;4.63;;;1.30;;
34984;SDS011;21190;58.750;17.004;2023-07-20T01:42:53;2.28;;;0.90;;
34984;SDS011;21190;58.750;17.004;2023-07-20T01:45:20;2.35;;;0.80;;
34984;SDS011;21190;58.750;17.004;2023-07-20T01:47:47;1.92;;;0.90;;
34984;SDS011;21190;58.750;17.004;2023-07-20T01:50:14;2.17;;;1.10;;
34984;SDS011;21190;58.750;17.004;2023-07-20T01:52:41;1.55;;;1.45;;
34984;SDS011;21190;58.750;17.004;2023-07-20T01:55:08;4.00;;;1.10;;
34984;SDS011;21190;58.750;17.004;2023-07-20T01:57:35;7.03;;;1.20;;
34984;SDS011;21190;58.750;17.004;2023-07-20T02:00:02;5.57;;;1.20;;
34984;SDS011;21190;58.750;17.004;2023-07-20T02:02:30;3.45;;;0.70;;
34984;SDS011;21190;58.750;17.004;2023-07-20T02:04:57;4.60;;;1.27;;
34984;SDS011;21190;58.750;17.004;2023-07-20T02:07:24;5.95;;;1.60;;
34984;SDS011;21190;58.750;17.004;2023-07-20T02:09:52;3.63;;;1.58;;
34984;SDS011;21190;58.750;17.004;2023-07-20T02:12:19;3.33;;;1.05;;
34984;SDS011;21190;58.750;17.004;2023-07-20T02:14:46;4.57;;;1.05;;
34984;SDS011;21190;58.750;17.004;2023-07-20T02:17:13;1.92;;;1.00;;
34984;SDS011;21190;58.750;17.004;2023-07-20T02:19:40;3.72;;;1.08;;
34984;SDS011;21190;58.750;17.004;2023-07-20T02:22:07;1.90;;;1.10;;
34984;SDS011;21190;58.750;17.004;2023-07-20T02:24:34;5.50;;;1.38;;
34984;SDS011;21190;58.750;17.004;2023-07-20T02:27:01;4.22;;;1.27;;
34984;SDS011;21190;58.750;17.004;2023-07-20T02:29:28;4.95;;;0.93;;
34984;SDS011;21190;58.750;17.004;2023-07-20T02:31:55;7.10;;;1.30;;
34984;SDS011;21190;58.750;17.004;2023-07-20T02:34:22;1.60;;;1.05;;
34984;SDS011;21190;58.750;17.004;2023-07-20T02:36:49;2.22;;;0.90;;
34984;SDS011;21190;58.750;17.004;2023-07-20T02:39:16;3.17;;;1.10;;
34984;SDS011;21190;58.750;17.004;2023-07-20T02:41:43;3.85;;;1.98;;
34984;SDS011;21190;58.750;17.004;2023-07-20T02:44:10;2.95;;;1.20;;
34984;SDS011;21190;58.750;17.004;2023-07-20T02:46:37;2.75;;;1.00;;
34984;SDS011;21190;58.750;17.004;2023-07-20T02:49:04;2.42;;;1.25;;
34984;SDS011;21190;58.750;17.004;2023-07-20T02:51:31;4.55;;;1.40;;
34984;SDS011;21190;58.750;17.004;2023-07-20T02:53:58;8.07;;;1.55;;
34984;SDS011;21190;58.750;17.004;2023-07-20T02:56:25;6.72;;;1.20;;
34984;SDS011;21190;58.750;17.004;2023-07-20T02:58:52;7.20;;;1.30;;
34984;SDS011;21190;58.750;17.004;2023-07-20T03:01:19;5.88;;;2.00;;
34984;SDS011;21190;58.750;17.004;2023-07-20T03:03:46;7.68;;;1.45;;
34984;SDS011;21190;58.750;17.004;2023-07-20T03:06:14;4.70;;;1.98;;
34984;SDS011;21190;58.750;17.004;2023-07-20T03:08:42;7.05;;;1.73;;
34984;SDS011;21190;58.750;17.004;2023-07-20T03:11:14;4.75;;;1.73;;
34984;SDS011;21190;58.750;17.004;2023-07-20T03:13:44;4.40;;;1.45;;
34984;SDS011;21190;58.750;17.004;2023-07-20T03:16:12;4.93;;;1.52;;
34984;SDS011;21190;58.750;17.004;2023-07-20T03:18:41;5.47;;;1.25;;
34984;SDS011;21190;58.750;17.004;2023-07-20T03:21:09;7.72;;;1.70;;
34984;SDS011;21190;58.750;17.004;2023-07-20T03:23:40;3.78;;;1.52;;
34984;SDS011;21190;58.750;17.004;2023-07-20T03:26:07;5.38;;;1.85;;
34984;SDS011;21190;58.750;17.004;2023-07-20T03:28:37;7.63;;;1.58;;
34984;SDS011;21190;58.750;17.004;2023-07-20T03:31:05;10.90;;;2.03;;
34984;SDS011;21190;58.750;17.004;2023-07-20T03:33:32;14.80;;;2.38;;
34984;SDS011;21190;58.750;17.004;2023-07-20T03:36:00;7.93;;;2.05;;
34984;SDS011;21190;58.750;17.004;2023-07-20T03:38:27;8.07;;;1.67;;
34984;SDS011;21190;58.750;17.004;2023-07-20T03:40:58;2.85;;;1.33;;
34984;SDS011;21190;58.750;17.004;2023-07-20T03:43:27;4.15;;;1.55;;
34984;SDS011;21190;58.750;17.004;2023-07-20T03:45:54;3.63;;;1.67;;
34984;SDS011;21190;58.750;17.004;2023-07-20T03:48:23;6.38;;;1.90;;
34984;SDS011;21190;58.750;17.004;2023-07-20T03:50:52;6.25;;;1.52;;
34984;SDS011;21190;58.750;17.004;2023-07-20T03:53:20;5.07;;;1.52;;
34984;SDS011;21190;58.750;17.004;2023-07-20T03:55:50;4.97;;;1.40;;
34984;SDS011;21190;58.750;17.004;2023-07-20T03:58:18;13.52;;;1.83;;
34984;SDS011;21190;58.750;17.004;2023-07-20T04:00:46;7.80;;;1.92;;
34984;SDS011;21190;58.750;17.004;2023-07-20T04:03:18;9.27;;;1.92;;
34984;SDS011;21190;58.750;17.004;2023-07-20T04:05:45;4.65;;;1.75;;
34984;SDS011;21190;58.750;17.004;2023-07-20T04:08:12;6.25;;;1.98;;
34984;SDS011;21190;58.750;17.004;2023-07-20T04:10:42;6.90;;;1.95;;
34984;SDS011;21190;58.750;17.004;2023-07-20T04:13:11;6.25;;;1.90;;
34984;SDS011;21190;58.750;17.004;2023-07-20T04:15:38;8.18;;;2.10;;
34984;SDS011;21190;58.750;17.004;2023-07-20T04:18:05;10.13;;;1.90;;
34984;SDS011;21190;58.750;17.004;2023-07-20T04:20:32;5.60;;;1.77;;
34984;SDS011;21190;58.750;17.004;2023-07-20T04:22:59;5.95;;;1.80;;
34984;SDS011;21190;58.750;17.004;2023-07-20T04:25:26;8.43;;;2.05;;
34984;SDS011;21190;58.750;17.004;2023-07-20T04:27:53;9.02;;;2.00;;
34984;SDS011;21190;58.750;17.004;2023-07-20T04:30:20;6.45;;;2.17;;
34984;SDS011;21190;58.750;17.004;2023-07-20T04:32:49;3.78;;;2.00;;
34984;SDS011;21190;58.750;17.004;2023-07-20T04:38:11;7.40;;;2.25;;
34984;SDS011;21190;58.750;17.004;2023-07-20T04:40:38;9.00;;;2.22;;
34984;SDS011;21190;58.750;17.004;2023-07-20T04:43:05;11.77;;;2.53;;
34984;SDS011;21190;58.750;17.004;2023-07-20T04:45:32;10.18;;;2.80;;
34984;SDS011;21190;58.750;17.004;2023-07-20T04:47:59;9.75;;;2.15;;
34984;SDS011;21190;58.750;17.004;2023-07-20T04:50:26;9.73;;;2.78;;
34984;SDS011;21190;58.750;17.004;2023-07-20T04:52:53;9.45;;;2.53;;
34984;SDS011;21190;58.750;17.004;2023-07-20T04:55:20;11.55;;;2.33;;
34984;SDS011;21190;58.750;17.004;2023-07-20T04:57:47;6.97;;;1.92;;
34984;SDS011;21190;58.750;17.004;2023-07-20T05:00:14;12.73;;;2.72;;
34984;SDS011;21190;58.750;17.004;2023-07-20T05:02:41;9.52;;;3.50;;
34984;SDS011;21190;58.750;17.004;2023-07-20T05:05:08;10.80;;;3.88;;
34984;SDS011;21190;58.750;17.004;2023-07-20T05:07:35;10.35;;;2.55;;
34984;SDS011;21190;58.750;17.004;2023-07-20T05:10:02;11.15;;;2.47;;
34984;SDS011;21190;58.750;17.004;2023-07-20T05:12:29;12.35;;;2.97;;
34984;SDS011;21190;58.750;17.004;2023-07-20T05:14:56;8.18;;;3.40;;
34984;SDS011;21190;58.750;17.004;2023-07-20T05:17:23;11.00;;;2.63;;
34984;SDS011;21190;58.750;17.004;2023-07-20T05:19:51;12.10;;;3.28;;
34984;SDS011;21190;58.750;17.004;2023-07-20T05:22:18;8.88;;;3.20;;
34984;SDS011;21190;58.750;17.004;2023-07-20T05:24:45;8.88;;;2.40;;
34984;SDS011;21190;58.750;17.004;2023-07-20T05:27:12;8.00;;;3.13;;
34984;SDS011;21190;58.750;17.004;2023-07-20T05:29:43;7.15;;;3.13;;
34984;SDS011;21190;58.750;17.004;2023-07-20T05:32:13;9.63;;;2.92;;
34984;SDS011;21190;58.750;17.004;2023-07-20T05:34:40;7.55;;;2.38;;
34984;SDS011;21190;58.750;17.004;2023-07-20T05:37:07;8.20;;;3.30;;
34984;SDS011;21190;58.750;17.004;2023-07-20T05:39:34;9.48;;;2.60;;
34984;SDS011;21190;58.750;17.004;2023-07-20T05:42:01;7.53;;;2.47;;
34984;SDS011;21190;58.750;17.004;2023-07-20T05:44:28;11.23;;;2.70;;
34984;SDS011;21190;58.750;17.004;2023-07-20T05:46:55;9.77;;;2.15;;
34984;SDS011;21190;58.750;17.004;2023-07-20T05:49:24;4.80;;;2.50;;
34984;SDS011;21190;58.750;17.004;2023-07-20T05:51:51;10.82;;;2.60;;
34984;SDS011;21190;58.750;17.004;2023-07-20T05:54:18;8.93;;;2.40;;
34984;SDS011;21190;58.750;17.004;2023-07-20T05:56:45;6.90;;;2.20;;
34984;SDS011;21190;58.750;17.004;2023-07-20T05:59:13;5.10;;;1.92;;
34984;SDS011;21190;58.750;17.004;2023-07-20T06:01:40;14.18;;;2.40;;
34984;SDS011;21190;58.750;17.004;2023-07-20T06:04:07;5.93;;;2.40;;
34984;SDS011;21190;58.750;17.004;2023-07-20T06:06:34;8.13;;;2.60;;
34984;SDS011;21190;58.750;17.004;2023-07-20T06:09:01;6.05;;;1.92;;
34984;SDS011;21190;58.750;17.004;2023-07-20T06:11:31;12.18;;;2.50;;
34984;SDS011;21190;58.750;17.004;2023-07-20T06:13:59;7.00;;;2.25;;
34984;SDS011;21190;58.750;17.004;2023-07-20T06:16:26;7.72;;;1.98;;
34984;SDS011;21190;58.750;17.004;2023-07-20T06:18:53;11.15;;;2.65;;
34984;SDS011;21190;58.750;17.004;2023-07-20T06:21:20;12.45;;;3.22;;
34984;SDS011;21190;58.750;17.004;2023-07-20T06:23:47;5.90;;;2.30;;
34984;SDS011;21190;58.750;17.004;2023-07-20T06:26:14;9.43;;;3.35;;
34984;SDS011;21190;58.750;17.004;2023-07-20T06:28:42;8.38;;;2.70;;
34984;SDS011;21190;58.750;17.004;2023-07-20T06:31:09;7.10;;;2.05;;
34984;SDS011;21190;58.750;17.004;2023-07-20T06:33:36;6.32;;;2.10;;
34984;SDS011;21190;58.750;17.004;2023-07-20T06:36:03;7.25;;;2.00;;
34984;SDS011;21190;58.750;17.004;2023-07-20T06:38:30;8.32;;;1.88;;
34984;SDS011;21190;58.750;17.004;2023-07-20T06:40:57;6.60;;;1.77;;
34984;SDS011;21190;58.750;17.004;2023-07-20T06:43:45;5.22;;;1.52;;
34984;SDS011;21190;58.750;17.004;2023-07-20T06:46:14;12.15;;;2.05;;
34984;SDS011;21190;58.750;17.004;2023-07-20T06:48:41;6.70;;;2.08;;
34984;SDS011;21190;58.750;17.004;2023-07-20T06:51:11;7.63;;;1.83;;
34984;SDS011;21190;58.750;17.004;2023-07-20T06:53:38;10.48;;;1.85;;
34984;SDS011;21190;58.750;17.004;2023-07-20T06:56:05;6.35;;;2.35;;
34984;SDS011;21190;58.750;17.004;2023-07-20T06:58:32;4.97;;;2.00;;
34984;SDS011;21190;58.750;17.004;2023-07-20T07:00:59;5.18;;;1.70;;
34984;SDS011;21190;58.750;17.004;2023-07-20T07:03:30;5.95;;;1.77;;
34984;SDS011;21190;58.750;17.004;2023-07-20T07:06:02;5.57;;;2.00;;
34984;SDS011;21190;58.750;17.004;2023-07-20T07:08:30;4.75;;;1.20;;
34984;SDS011;21190;58.750;17.004;2023-07-20T07:10:57;5.15;;;1.70;;
34984;SDS011;21190;58.750;17.004;2023-07-20T07:13:24;6.50;;;1.67;;
34984;SDS011;21190;58.750;17.004;2023-07-20T07:15:51;5.82;;;2.03;;
34984;SDS011;21190;58.750;17.004;2023-07-20T07:18:18;5.25;;;1.65;;
34984;SDS011;21190;58.750;17.004;2023-07-20T07:20:50;5.72;;;1.55;;
34984;SDS011;21190;58.750;17.004;2023-07-20T07:23:18;7.93;;;2.13;;
34984;SDS011;21190;58.750;17.004;2023-07-20T07:25:45;3.95;;;1.30;;
34984;SDS011;21190;58.750;17.004;2023-07-20T07:28:13;8.48;;;1.90;;
34984;SDS011;21190;58.750;17.004;2023-07-20T07:30:40;6.50;;;2.28;;
34984;SDS011;21190;58.750;17.004;2023-07-20T07:33:07;1.83;;;1.35;;
34984;SDS011;21190;58.750;17.004;2023-07-20T07:35:35;4.43;;;1.13;;
34984;SDS011;21190;58.750;17.004;2023-07-20T07:38:02;5.20;;;1.00;;
34984;SDS011;21190;58.750;17.004;2023-07-20T07:40:49;4.00;;;1.40;;
34984;SDS011;21190;58.750;17.004;2023-07-20T07:43:16;5.53;;;1.60;;
34984;SDS011;21190;58.750;17.004;2023-07-20T07:45:43;5.32;;;1.52;;
34984;SDS011;21190;58.750;17.004;2023-07-20T07:48:10;6.35;;;1.75;;
34984;SDS011;21190;58.750;17.004;2023-07-20T07:50:38;5.18;;;1.73;;
34984;SDS011;21190;58.750;17.004;2023-07-20T07:53:08;5.57;;;1.30;;
34984;SDS011;21190;58.750;17.004;2023-07-20T07:55:36;4.97;;;1.52;;
34984;SDS011;21190;58.750;17.004;2023-07-20T07:58:03;4.60;;;1.33;;
34984;SDS011;21190;58.750;17.004;2023-07-20T08:00:30;2.22;;;1.00;;
34984;SDS011;21190;58.750;17.004;2023-07-20T08:02:57;2.70;;;1.10;;
34984;SDS011;21190;58.750;17.004;2023-07-20T08:05:24;5.25;;;1.13;;
34984;SDS011;21190;58.750;17.004;2023-07-20T08:07:52;5.30;;;1.20;;
34984;SDS011;21190;58.750;17.004;2023-07-20T08:10:19;4.70;;;1.55;;
34984;SDS011;21190;58.750;17.004;2023-07-20T08:12:48;4.60;;;1.30;;
34984;SDS011;21190;58.750;17.004;2023-07-20T08:15:15;8.52;;;1.83;;
34984;SDS011;21190;58.750;17.004;2023-07-20T08:17:42;2.15;;;1.05;;
34984;SDS011;21190;58.750;17.004;2023-07-20T08:20:12;6.07;;;1.38;;
34984;SDS011;21190;58.750;17.004;2023-07-20T08:22:39;2.60;;;1.10;;
34984;SDS011;21190;58.750;17.004;2023-07-20T08:25:06;3.30;;;1.27;;
34984;SDS011;21190;58.750;17.004;2023-07-20T08:27:34;11.15;;;1.63;;
34984;SDS011;21190;58.750;17.004;2023-07-20T08:30:02;4.68;;;1.25;;
34984;SDS011;21190;58.750;17.004;2023-07-20T08:32:30;2.88;;;1.50;;
34984;SDS011;21190;58.750;17.004;2023-07-20T08:34:58;3.35;;;1.20;;
34984;SDS011;21190;58.750;17.004;2023-07-20T08:37:25;3.28;;;1.08;;
34984;SDS011;21190;58.750;17.004;2023-07-20T08:39:52;4.00;;;1.27;;
34984;SDS011;21190;58.750;17.004;2023-07-20T08:42:19;3.25;;;0.95;;
34984;SDS011;21190;58.750;17.004;2023-07-20T08:44:48;2.63;;;1.55;;
34984;SDS011;21190;58.750;17.004;2023-07-20T08:47:16;2.55;;;1.08;;
34984;SDS011;21190;58.750;17.004;2023-07-20T08:49:44;2.95;;;1.42;;
34984;SDS011;21190;58.750;17.004;2023-07-20T08:52:15;3.05;;;1.17;;
34984;SDS011;21190;58.750;17.004;2023-07-20T08:54:42;3.95;;;0.90;;
34984;SDS011;21190;58.750;17.004;2023-07-20T08:57:09;4.55;;;1.40;;
34984;SDS011;21190;58.750;17.004;2023-07-20T08:59:40;4.85;;;1.13;;
34984;SDS011;21190;58.750;17.004;2023-07-20T09:02:08;3.33;;;1.00;;
34984;SDS011;21190;58.750;17.004;2023-07-20T09:04:45;5.97;;;1.27;;
34984;SDS011;21190;58.750;17.004;2023-07-20T09:07:12;2.50;;;1.05;;
34984;SDS011;21190;58.750;17.004;2023-07-20T09:09:41;3.13;;;1.35;;
34984;SDS011;21190;58.750;17.004;2023-07-20T09:12:16;2.28;;;0.90;;
34984;SDS011;21190;58.750;17.004;2023-07-20T09:14:43;1.92;;;0.88;;
34984;SDS011;21190;58.750;17.004;2023-07-20T09:17:14;4.45;;;1.15;;
34984;SDS011;21190;58.750;17.004;2023-07-20T09:19:46;9.50;;;1.85;;
34984;SDS011;21190;58.750;17.004;2023-07-20T09:22:14;13.23;;;2.92;;
34984;SDS011;21190;58.750;17.004;2023-07-20T09:24:41;11.98;;;2.38;;
34984;SDS011;21190;58.750;17.004;2023-07-20T09:27:10;6.05;;;1.35;;
34984;SDS011;21190;58.750;17.004;2023-07-20T09:29:47;4.70;;;1.30;;
34984;SDS011;21190;58.750;17.004;2023-07-20T09:32:18;5.20;;;1.23;;
34984;SDS011;21190;58.750;17.004;2023-07-20T09:34:51;6.07;;;1.23;;
34984;SDS011;21190;58.750;17.004;2023-07-20T09:37:22;4.60;;;1.60;;
34984;SDS011;21190;58.750;17.004;2023-07-20T09:39:51;5.72;;;1.77;;
34984;SDS011;21190;58.750;17.004;2023-07-20T09:42:23;3.53;;;1.70;;
34984;SDS011;21190;58.750;17.004;2023-07-20T09:44:56;7.45;;;1.80;;
34984;SDS011;21190;58.750;17.004;2023-07-20T09:47:23;6.93;;;2.67;;
34984;SDS011;21190;58.750;17.004;2023-07-20T09:50:00;6.18;;;1.92;;
34984;SDS011;21190;58.750;17.004;2023-07-20T09:55:01;4.45;;;1.05;;
34984;SDS011;21190;58.750;17.004;2023-07-20T09:57:29;3.50;;;1.50;;
34984;SDS011;21190;58.750;17.004;2023-07-20T09:59:57;6.68;;;1.58;;
34984;SDS011;21190;58.750;17.004;2023-07-20T10:02:32;3.38;;;1.50;;
34984;SDS011;21190;58.750;17.004;2023-07-20T10:05:01;3.17;;;1.50;;
34984;SDS011;21190;58.750;17.004;2023-07-20T10:07:30;5.25;;;1.40;;
34984;SDS011;21190;58.750;17.004;2023-07-20T10:10:03;3.53;;;1.13;;
34984;SDS011;21190;58.750;17.004;2023-07-20T10:12:32;4.85;;;1.35;;
34984;SDS011;21190;58.750;17.004;2023-07-20T10:15:10;4.63;;;1.95;;
34984;SDS011;21190;58.750;17.004;2023-07-20T10:17:44;4.43;;;1.35;;
34984;SDS011;21190;58.750;17.004;2023-07-20T10:20:24;6.13;;;1.27;;
34984;SDS011;21190;58.750;17.004;2023-07-20T10:22:53;3.13;;;1.33;;
34984;SDS011;21190;58.750;17.004;2023-07-20T10:25:23;4.85;;;1.70;;
34984;SDS011;21190;58.750;17.004;2023-07-20T10:27:50;3.20;;;1.48;;
34984;SDS011;21190;58.750;17.004;2023-07-20T10:30:17;3.92;;;1.50;;
34984;SDS011;21190;58.750;17.004;2023-07-20T10:32:46;4.22;;;1.00;;
34984;SDS011;21190;58.750;17.004;2023-07-20T10:35:15;2.80;;;1.75;;
34984;SDS011;21190;58.750;17.004;2023-07-20T10:40:33;4.63;;;1.80;;
34984;SDS011;21190;58.750;17.004;2023-07-20T10:43:05;3.28;;;1.13;;
34984;SDS011;21190;58.750;17.004;2023-07-20T10:45:39;3.05;;;1.10;;
34984;SDS011;21190;58.750;17.004;2023-07-20T10:48:14;2.13;;;1.10;;
34984;SDS011;21190;58.750;17.004;2023-07-20T10:50:43;3.23;;;1.40;;
34984;SDS011;21190;58.750;17.004;2023-07-20T10:53:11;1.02;;;0.80;;
34984;SDS011;21190;58.750;17.004;2023-07-20T10:55:39;3.10;;;1.15;;
34984;SDS011;21190;58.750;17.004;2023-07-20T10:58:10;2.17;;;0.98;;
34984;SDS011;21190;58.750;17.004;2023-07-20T11:05:58;2.20;;;0.90;;
34984;SDS011;21190;58.750;17.004;2023-07-20T11:08:42;2.45;;;0.98;;
34984;SDS011;21190;58.750;17.004;2023-07-20T11:13:58;3.65;;;0.70;;
34984;SDS011;21190;58.750;17.004;2023-07-20T11:17:10;2.10;;;0.60;;
34984;SDS011;21190;58.750;17.004;2023-07-20T11:22:07;1.67;;;0.90;;
34984;SDS011;21190;58.750;17.004;2023-07-20T11:24:38;1.30;;;0.95;;
34984;SDS011;21190;58.750;17.004;2023-07-20T11:27:06;5.22;;;1.20;;
34984;SDS011;21190;58.750;17.004;2023-07-20T11:29:34;2.25;;;1.13;;
34984;SDS011;21190;58.750;17.004;2023-07-20T11:32:02;3.20;;;1.30;;
34984;SDS011;21190;58.750;17.004;2023-07-20T11:34:32;4.82;;;1.00;;
34984;SDS011;21190;58.750;17.004;2023-07-20T11:37:00;3.05;;;1.05;;
34984;SDS011;21190;58.750;17.004;2023-07-20T11:39:31;1.50;;;0.82;;
34984;SDS011;21190;58.750;17.004;2023-07-20T11:41:58;4.43;;;0.90;;
34984;SDS011;21190;58.750;17.004;2023-07-20T11:44:28;1.48;;;0.70;;
34984;SDS011;21190;58.750;17.004;2023-07-20T11:47:04;1.98;;;1.00;;
34984;SDS011;21190;58.750;17.004;2023-07-20T11:49:38;5.43;;;1.52;;
34984;SDS011;21190;58.750;17.004;2023-07-20T11:52:11;1.42;;;0.95;;
34984;SDS011;21190;58.750;17.004;2023-07-20T11:54:43;1.98;;;0.73;;
34984;SDS011;21190;58.750;17.004;2023-07-20T11:57:18;8.30;;;1.10;;
34984;SDS011;21190;58.750;17.004;2023-07-20T12:00:02;2.65;;;1.30;;
34984;SDS011;21190;58.750;17.004;2023-07-20T12:02:38;1.73;;;0.80;;
34984;SDS011;21190;58.750;17.004;2023-07-20T12:05:06;2.47;;;1.10;;
34984;SDS011;21190;58.750;17.004;2023-07-20T12:07:35;4.88;;;1.23;;
34984;SDS011;21190;58.750;17.004;2023-07-20T12:10:04;1.25;;;0.80;;
34984;SDS011;21190;58.750;17.004;2023-07-20T12:12:38;3.25;;;0.90;;
34984;SDS011;21190;58.750;17.004;2023-07-20T12:15:25;4.57;;;1.35;;
34984;SDS011;21190;58.750;17.004;2023-07-20T12:17:53;2.20;;;0.90;;
34984;SDS011;21190;58.750;17.004;2023-07-20T12:20:29;3.60;;;0.80;;
34984;SDS011;21190;58.750;17.004;2023-07-20T12:22:59;2.65;;;0.70;;
34984;SDS011;21190;58.750;17.004;2023-07-20T12:28:14;3.25;;;1.27;;
34984;SDS011;21190;58.750;17.004;2023-07-20T12:30:42;3.53;;;0.88;;
34984;SDS011;21190;58.750;17.004;2023-07-20T12:33:11;2.50;;;0.90;;
34984;SDS011;21190;58.750;17.004;2023-07-20T12:35:42;1.48;;;0.70;;
34984;SDS011;21190;58.750;17.004;2023-07-20T12:38:09;1.52;;;0.80;;
34984;SDS011;21190;58.750;17.004;2023-07-20T12:40:36;3.08;;;1.05;;
34984;SDS011;21190;58.750;17.004;2023-07-20T12:43:03;4.55;;;0.98;;
34984;SDS011;21190;58.750;17.004;2023-07-20T12:45:31;1.80;;;0.93;;
34984;SDS011;21190;58.750;17.004;2023-07-20T12:47:58;1.73;;;0.70;;
34984;SDS011;21190;58.750;17.004;2023-07-20T12:50:26;2.45;;;0.80;;
34984;SDS011;21190;58.750;17.004;2023-07-20T12:52:53;3.28;;;1.13;;
34984;SDS011;21190;58.750;17.004;2023-07-20T12:55:20;2.72;;;1.13;;
34984;SDS011;21190;58.750;17.004;2023-07-20T12:57:47;2.53;;;0.90;;
34984;SDS011;21190;58.750;17.004;2023-07-20T13:00:14;2.70;;;0.93;;
34984;SDS011;21190;58.750;17.004;2023-07-20T13:02:42;3.72;;;1.05;;
34984;SDS011;21190;58.750;17.004;2023-07-20T13:05:10;3.00;;;0.90;;
34984;SDS011;21190;58.750;17.004;2023-07-20T13:07:37;2.55;;;0.90;;
34984;SDS011;21190;58.750;17.004;2023-07-20T13:10:08;2.92;;;1.10;;
34984;SDS011;21190;58.750;17.004;2023-07-20T13:12:37;1.52;;;0.63;;
34984;SDS011;21190;58.750;17.004;2023-07-20T13:15:05;2.42;;;1.45;;
34984;SDS011;21190;58.750;17.004;2023-07-20T13:17:37;3.25;;;1.10;;
34984;SDS011;21190;58.750;17.004;2023-07-20T13:20:06;2.10;;;0.80;;
34984;SDS011;21190;58.750;17.004;2023-07-20T13:22:36;2.17;;;0.73;;
34984;SDS011;21190;58.750;17.004;2023-07-20T13:25:04;4.35;;;1.30;;
34984;SDS011;21190;58.750;17.004;2023-07-20T13:27:32;2.45;;;0.90;;
34984;SDS011;21190;58.750;17.004;2023-07-20T13:30:00;2.78;;;1.23;;
34984;SDS011;21190;58.750;17.004;2023-07-20T13:32:35;2.28;;;0.80;;
34984;SDS011;21190;58.750;17.004;2023-07-20T13:35:03;4.13;;;1.10;;
34984;SDS011;21190;58.750;17.004;2023-07-20T13:37:31;6.57;;;1.50;;
34984;SDS011;21190;58.750;17.004;2023-07-20T13:39:58;4.60;;;1.00;;
34984;SDS011;21190;58.750;17.004;2023-07-20T13:42:24;2.00;;;0.93;;
34984;SDS011;21190;58.750;17.004;2023-07-20T13:44:51;5.40;;;1.10;;
34984;SDS011;21190;58.750;17.004;2023-07-20T13:47:18;2.53;;;1.05;;
34984;SDS011;21190;58.750;17.004;2023-07-20T13:49:47;2.38;;;1.13;;
34984;SDS011;21190;58.750;17.004;2023-07-20T13:52:28;2.17;;;1.00;;
34984;SDS011;21190;58.750;17.004;2023-07-20T13:54:58;3.75;;;1.60;;
34984;SDS011;21190;58.750;17.004;2023-07-20T13:57:25;4.78;;;1.48;;
34984;SDS011;21190;58.750;17.004;2023-07-20T13:59:53;4.25;;;1.17;;
34984;SDS011;21190;58.750;17.004;2023-07-20T14:02:20;2.58;;;0.90;;
34984;SDS011;21190;58.750;17.004;2023-07-20T14:04:50;3.80;;;0.82;;
34984;SDS011;21190;58.750;17.004;2023-07-20T14:07:37;2.65;;;1.10;;
34984;SDS011;21190;58.750;17.004;2023-07-20T14:10:04;3.58;;;0.90;;
34984;SDS011;21190;58.750;17.004;2023-07-20T14:12:34;2.70;;;0.85;;
34984;SDS011;21190;58.750;17.004;2023-07-20T14:15:01;2.72;;;0.88;;
34984;SDS011;21190;58.750;17.004;2023-07-20T14:17:28;2.95;;;0.95;;
34984;SDS011;21190;58.750;17.004;2023-07-20T14:19:58;3.58;;;0.90;;
34984;SDS011;21190;58.750;17.004;2023-07-20T14:22:25;1.67;;;0.85;;
34984;SDS011;21190;58.750;17.004;2023-07-20T14:24:52;1.98;;;0.70;;
34984;SDS011;21190;58.750;17.004;2023-07-20T14:27:20;4.57;;;1.30;;
34984;SDS011;21190;58.750;17.004;2023-07-20T14:29:47;3.40;;;0.90;;
34984;SDS011;21190;58.750;17.004;2023-07-20T14:32:14;1.52;;;0.80;;
34984;SDS011;21190;58.750;17.004;2023-07-20T14:34:40;3.88;;;1.08;;
34984;SDS011;21190;58.750;17.004;2023-07-20T14:37:07;2.72;;;0.90;;
34984;SDS011;21190;58.750;17.004;2023-07-20T14:39:34;3.85;;;0.80;;
34984;SDS011;21190;58.750;17.004;2023-07-20T14:42:02;1.60;;;0.75;;
34984;SDS011;21190;58.750;17.004;2023-07-20T14:44:30;2.58;;;0.80;;
34984;SDS011;21190;58.750;17.004;2023-07-20T14:46:59;7.00;;;1.17;;
34984;SDS011;21190;58.750;17.004;2023-07-20T14:49:39;2.22;;;0.88;;
34984;SDS011;21190;58.750;17.004;2023-07-20T14:52:06;1.23;;;0.90;;
34984;SDS011;21190;58.750;17.004;2023-07-20T14:54:36;1.77;;;0.65;;
34984;SDS011;21190;58.750;17.004;2023-07-20T14:57:04;4.28;;;0.80;;
34984;SDS011;21190;58.750;17.004;2023-07-20T14:59:31;1.40;;;0.55;;
34984;SDS011;21190;58.750;17.004;2023-07-20T15:01:58;2.05;;;0.60;;
34984;SDS011;21190;58.750;17.004;2023-07-20T15:04:25;2.38;;;0.80;;
34984;SDS011;21190;58.750;17.004;2023-07-20T15:06:52;1.45;;;0.75;;
34984;SDS011;21190;58.750;17.004;2023-07-20T15:09:21;2.92;;;0.77;;
34984;SDS011;21190;58.750;17.004;2023-07-20T15:11:48;2.08;;;0.73;;
34984;SDS011;21190;58.750;17.004;2023-07-20T15:14:15;3.53;;;0.80;;
34984;SDS011;21190;58.750;17.004;2023-07-20T15:16:42;1.10;;;0.70;;
34984;SDS011;21190;58.750;17.004;2023-07-20T15:19:10;2.40;;;0.68;;
34984;SDS011;21190;58.750;17.004;2023-07-20T15:21:39;1.52;;;0.70;;